sensor_id;sensor_type;location;lat;lon;timestamp;pressure;altitude;pressure_sealevel;temperature;humidity
60087;BME280;45960;53.630;55.972;2023-04-19T00:00:17;101368.50;;;11.50;31.93
60087;BME280;45960;53.630;55.972;2023-04-19T00:01:18;101361.41;;;11.49;31.94
60087;BME280;45960;53.630;55.972;2023-04-19T00:02:20;101372.13;;;11.49;31.86
60087;BME280;45960;53.630;55.972;2023-04-19T00:03:20;101368.50;;;11.50;31.69
60087;BME280;45960;53.630;55.972;2023-04-19T00:04:24;101372.97;;;11.49;31.68
60087;BME280;45960;53.630;55.972;2023-04-19T00:05:25;101370.38;;;11.48;31.77
60087;BME280;45960;53.630;55.972;2023-04-19T00:06:26;101363.31;;;11.47;31.86
60087;BME280;45960;53.630;55.972;2023-04-19T00:07:30;101370.53;;;11.45;32.05
60087;BME280;45960;53.630;55.972;2023-04-19T00:08:31;101374.16;;;11.43;31.99
60087;BME280;45960;53.630;55.972;2023-04-19T00:09:32;101368.03;;;11.41;31.98
60087;BME280;45960;53.630;55.972;2023-04-19T00:10:33;101356.53;;;11.39;31.58
60087;BME280;45960;53.630;55.972;2023-04-19T00:11:35;101369.03;;;11.39;31.77
60087;BME280;45960;53.630;55.972;2023-04-19T00:12:36;101361.88;;;11.39;31.79
60087;BME280;45960;53.630;55.972;2023-04-19T00:13:37;101353.31;;;11.33;31.68
60087;BME280;45960;53.630;55.972;2023-04-19T00:14:38;101360.16;;;11.38;31.77
60087;BME280;45960;53.630;55.972;2023-04-19T00:15:39;101366.69;;;11.33;31.59
60087;BME280;45960;53.630;55.972;2023-04-19T00:16:40;101343.63;;;11.13;31.79
60087;BME280;45960;53.630;55.972;2023-04-19T00:17:42;101366.31;;;11.23;32.03
60087;BME280;45960;53.630;55.972;2023-04-19T00:18:43;101367.22;;;11.22;31.99
60087;BME280;45960;53.630;55.972;2023-04-19T00:19:44;101360.16;;;11.21;31.87
60087;BME280;45960;53.630;55.972;2023-04-19T00:20:45;101355.81;;;11.18;31.88
60087;BME280;45960;53.630;55.972;2023-04-19T00:21:46;101358.66;;;11.15;31.87
60087;BME280;45960;53.630;55.972;2023-04-19T00:22:47;101363.31;;;11.12;32.27
60087;BME280;45960;53.630;55.972;2023-04-19T00:23:48;101361.53;;;11.11;32.13
60087;BME280;45960;53.630;55.972;2023-04-19T00:24:49;101364.88;;;11.16;32.09
60087;BME280;45960;53.630;55.972;2023-04-19T00:25:50;101361.22;;;11.17;32.08
60087;BME280;45960;53.630;55.972;2023-04-19T00:26:51;101356.69;;;11.19;31.97
60087;BME280;45960;53.630;55.972;2023-04-19T00:27:52;101357.63;;;11.18;32.08
60087;BME280;45960;53.630;55.972;2023-04-19T00:28:54;101358.66;;;11.15;32.11
60087;BME280;45960;53.630;55.972;2023-04-19T00:29:56;101368.66;;;11.12;32.31
60087;BME280;45960;53.630;55.972;2023-04-19T00:30:59;101368.78;;;11.09;32.37
60087;BME280;45960;53.630;55.972;2023-04-19T00:32:00;101365.25;;;11.08;32.47
60087;BME280;45960;53.630;55.972;2023-04-19T00:33:01;101361.53;;;11.11;32.97
60087;BME280;45960;53.630;55.972;2023-04-19T00:34:02;101361.53;;;11.11;32.76
60087;BME280;45960;53.630;55.972;2023-04-19T00:35:04;101357.78;;;11.15;32.97
60087;BME280;45960;53.630;55.972;2023-04-19T00:36:06;101357.78;;;11.15;32.95
60087;BME280;45960;53.630;55.972;2023-04-19T00:37:08;101363.91;;;11.17;32.77
60087;BME280;45960;53.630;55.972;2023-04-19T00:38:10;101354.16;;;11.16;32.62
60087;BME280;45960;53.630;55.972;2023-04-19T00:39:11;101355.03;;;11.16;32.51
60087;BME280;45960;53.630;55.972;2023-04-19T00:40:12;101350.53;;;11.17;32.52
60087;BME280;45960;53.630;55.972;2023-04-19T00:41:14;101345.19;;;11.17;32.75
60087;BME280;45960;53.630;55.972;2023-04-19T00:42:15;101348.66;;;11.19;32.45
60087;BME280;45960;53.630;55.972;2023-04-19T00:43:17;101346.94;;;11.18;32.45
60087;BME280;45960;53.630;55.972;2023-04-19T00:44:19;101354.88;;;11.19;32.32
60087;BME280;45960;53.630;55.972;2023-04-19T00:45:20;101360.22;;;11.19;32.40
60087;BME280;45960;53.630;55.972;2023-04-19T00:46:21;101368.19;;;11.21;32.35
60087;BME280;45960;53.630;55.972;2023-04-19T00:47:23;101362.81;;;11.21;32.67
60087;BME280;45960;53.630;55.972;2023-04-19T00:48:25;101361.06;;;11.20;32.53
60087;BME280;45960;53.630;55.972;2023-04-19T00:49:26;101354.88;;;11.19;32.81
60087;BME280;45960;53.630;55.972;2023-04-19T00:50:27;101357.47;;;11.21;32.67
60087;BME280;45960;53.630;55.972;2023-04-19T00:51:30;101353.06;;;11.20;32.74
60087;BME280;45960;53.630;55.972;2023-04-19T00:52:32;101362.03;;;11.19;32.77
60087;BME280;45960;53.630;55.972;2023-04-19T00:53:34;101363.91;;;11.17;33.17
60087;BME280;45960;53.630;55.972;2023-04-19T00:54:36;101350.84;;;11.11;33.43
60087;BME280;45960;53.630;55.972;2023-04-19T00:55:38;101365.03;;;11.13;33.23
60087;BME280;45960;53.630;55.972;2023-04-19T00:56:39;101352.88;;;11.06;33.53
60087;BME280;45960;53.630;55.972;2023-04-19T00:57:41;101353.63;;;11.09;33.68
60087;BME280;45960;53.630;55.972;2023-04-19T00:58:43;101357.22;;;11.08;33.88
60087;BME280;45960;53.630;55.972;2023-04-19T00:59:44;101359.13;;;11.06;33.79
60087;BME280;45960;53.630;55.972;2023-04-19T01:00:46;101352.88;;;11.06;33.53
60087;BME280;45960;53.630;55.972;2023-04-19T01:01:47;101366.34;;;11.04;33.86
60087;BME280;45960;53.630;55.972;2023-04-19T01:02:49;101359.25;;;11.03;33.79
60087;BME280;45960;53.630;55.972;2023-04-19T01:03:52;101360.25;;;11.01;33.54
60087;BME280;45960;53.630;55.972;2023-04-19T01:04:54;101355.06;;;10.97;33.52
60087;BME280;45960;53.630;55.972;2023-04-19T01:05:56;101360.34;;;10.99;33.68
60087;BME280;45960;53.630;55.972;2023-04-19T01:06:57;101360.41;;;10.97;33.95
60087;BME280;45960;53.630;55.972;2023-04-19T01:07:58;101355.06;;;10.97;33.78
60087;BME280;45960;53.630;55.972;2023-04-19T01:09:00;101364.03;;;10.96;33.85
60087;BME280;45960;53.630;55.972;2023-04-19T01:10:01;101355.22;;;10.94;33.90
60087;BME280;45960;53.630;55.972;2023-04-19T01:11:02;101332.75;;;10.81;33.97
60087;BME280;45960;53.630;55.972;2023-04-19T01:12:03;101360.56;;;10.94;33.92
60087;BME280;45960;53.630;55.972;2023-04-19T01:13:04;101362.47;;;10.92;33.98
60087;BME280;45960;53.630;55.972;2023-04-19T01:14:06;101362.47;;;10.92;34.29
60087;BME280;45960;53.630;55.972;2023-04-19T01:15:07;101358.22;;;10.88;34.48
60087;BME280;45960;53.630;55.972;2023-04-19T01:16:08;101362.59;;;10.89;34.61
60087;BME280;45960;53.630;55.972;2023-04-19T01:17:10;101365.28;;;10.89;34.95
60087;BME280;45960;53.630;55.972;2023-04-19T01:18:13;101355.53;;;10.88;34.58
60087;BME280;45960;53.630;55.972;2023-04-19T01:19:14;101357.25;;;10.89;34.78
60087;BME280;45960;53.630;55.972;2023-04-19T01:20:16;101354.88;;;10.83;34.59
60087;BME280;45960;53.630;55.972;2023-04-19T01:21:18;101358.22;;;10.88;34.83
60087;BME280;45960;53.630;55.972;2023-04-19T01:22:20;101367.94;;;10.89;34.36
60087;BME280;45960;53.630;55.972;2023-04-19T01:23:22;101364.50;;;10.87;34.24
60087;BME280;45960;53.630;55.972;2023-04-19T01:24:23;101367.19;;;10.87;34.66
60087;BME280;45960;53.630;55.972;2023-04-19T01:25:24;101360.97;;;10.87;34.38
60087;BME280;45960;53.630;55.972;2023-04-19T01:26:26;101363.66;;;10.87;34.39
60087;BME280;45960;53.630;55.972;2023-04-19T01:27:28;101351.22;;;10.86;34.59
60087;BME280;45960;53.630;55.972;2023-04-19T01:28:31;101355.69;;;10.85;34.40
60087;BME280;45960;53.630;55.972;2023-04-19T01:29:37;101349.47;;;10.85;34.60
60087;BME280;45960;53.630;55.972;2023-04-19T01:30:38;101352.22;;;10.83;34.58
60087;BME280;45960;53.630;55.972;2023-04-19T01:31:39;101361.03;;;10.85;34.55
60087;BME280;45960;53.630;55.972;2023-04-19T01:32:40;101351.22;;;10.86;34.49
60087;BME280;45960;53.630;55.972;2023-04-19T01:33:42;101350.19;;;10.88;34.16
60087;BME280;45960;53.630;55.972;2023-04-19T01:34:44;101360.81;;;10.90;34.00
60087;BME280;45960;53.630;55.972;2023-04-19T01:35:46;101345.84;;;10.86;34.22
60087;BME280;45960;53.630;55.972;2023-04-19T01:36:48;101353.56;;;10.92;34.05
60087;BME280;45960;53.630;55.972;2023-04-19T01:37:49;101355.22;;;10.94;34.17
60087;BME280;45960;53.630;55.972;2023-04-19T01:38:52;101356.97;;;10.95;34.38
60087;BME280;45960;53.630;55.972;2023-04-19T01:39:54;101347.47;;;10.90;34.64
60087;BME280;45960;53.630;55.972;2023-04-19T01:40:55;101364.03;;;10.96;34.73
60087;BME280;45960;53.630;55.972;2023-04-19T01:41:58;101366.66;;;10.98;34.77
60087;BME280;45960;53.630;55.972;2023-04-19T01:43:00;101363.03;;;10.99;34.82
60087;BME280;45960;53.630;55.972;2023-04-19T01:44:01;101367.53;;;10.98;35.22
60087;BME280;45960;53.630;55.972;2023-04-19T01:45:03;101365.63;;;11.01;35.02
60087;BME280;45960;53.630;55.972;2023-04-19T01:46:04;101365.72;;;10.99;35.01
60087;BME280;45960;53.630;55.972;2023-04-19T01:47:05;101366.56;;;11.00;34.85
60087;BME280;45960;53.630;55.972;2023-04-19T01:48:06;101366.56;;;11.00;34.76
60087;BME280;45960;53.630;55.972;2023-04-19T01:49:08;101366.56;;;11.00;34.61
60087;BME280;45960;53.630;55.972;2023-04-19T01:50:10;101371.28;;;10.94;34.48
60087;BME280;45960;53.630;55.972;2023-04-19T01:51:11;101379.03;;;10.82;34.76
60087;BME280;45960;53.630;55.972;2023-04-19T01:52:12;101379.72;;;10.68;34.74
60087;BME280;45960;53.630;55.972;2023-04-19T01:53:13;101357.63;;;10.45;34.90
60087;BME280;45960;53.630;55.972;2023-04-19T01:54:15;101374.94;;;10.56;34.91
60087;BME280;45960;53.630;55.972;2023-04-19T01:55:18;101368.53;;;10.60;34.79
60087;BME280;45960;53.630;55.972;2023-04-19T01:56:20;101383.31;;;10.67;34.77
60087;BME280;45960;53.630;55.972;2023-04-19T01:57:21;101380.28;;;10.74;35.14
60087;BME280;45960;53.630;55.972;2023-04-19T01:58:22;101377.22;;;10.82;35.04
60087;BME280;45960;53.630;55.972;2023-04-19T01:59:23;101377.72;;;10.90;34.79
60087;BME280;45960;53.630;55.972;2023-04-19T02:00:25;101374.59;;;11.00;34.85
60087;BME280;45960;53.630;55.972;2023-04-19T02:01:27;101371.53;;;11.07;34.66
60087;BME280;45960;53.630;55.972;2023-04-19T02:02:29;101366.59;;;11.17;34.51
60087;BME280;45960;53.630;55.972;2023-04-19T02:03:30;101368.88;;;11.25;34.67
60087;BME280;45960;53.630;55.972;2023-04-19T02:04:32;101369.41;;;11.31;34.78
60087;BME280;45960;53.630;55.972;2023-04-19T02:05:34;101365.66;;;11.35;34.60
60087;BME280;45960;53.630;55.972;2023-04-19T02:06:35;101355.50;;;11.42;34.39
60087;BME280;45960;53.630;55.972;2023-04-19T02:07:38;101340.63;;;11.36;34.36
60087;BME280;45960;53.630;55.972;2023-04-19T02:08:41;101367.53;;;11.51;34.60
60087;BME280;45960;53.630;55.972;2023-04-19T02:09:42;101366.59;;;11.52;34.92
60087;BME280;45960;53.630;55.972;2023-04-19T02:10:43;101360.47;;;11.50;34.68
60087;BME280;45960;53.630;55.972;2023-04-19T02:11:44;101366.50;;;11.53;34.56
60087;BME280;45960;53.630;55.972;2023-04-19T02:12:45;101366.44;;;11.55;34.74
60087;BME280;45960;53.630;55.972;2023-04-19T02:13:47;101368.16;;;11.56;34.75
60087;BME280;45960;53.630;55.972;2023-04-19T02:14:48;101368.00;;;11.59;34.54
60087;BME280;45960;53.630;55.972;2023-04-19T02:15:49;101366.13;;;11.61;34.85
60087;BME280;45960;53.630;55.972;2023-04-19T02:16:50;101362.34;;;11.65;34.57
60087;BME280;45960;53.630;55.972;2023-04-19T02:17:51;101362.19;;;11.68;34.34
60087;BME280;45960;53.630;55.972;2023-04-19T02:18:53;101365.63;;;11.70;34.42
60087;BME280;45960;53.630;55.972;2023-04-19T02:19:54;101368.59;;;11.81;34.29
60087;BME280;45960;53.630;55.972;2023-04-19T02:20:55;101362.97;;;11.88;34.24
60087;BME280;45960;53.630;55.972;2023-04-19T02:21:56;101375.25;;;11.92;34.15
60087;BME280;45960;53.630;55.972;2023-04-19T02:22:57;101366.09;;;11.96;33.51
60087;BME280;45960;53.630;55.972;2023-04-19T02:23:59;101364.81;;;12.03;33.66
60087;BME280;45960;53.630;55.972;2023-04-19T02:25:00;101368.13;;;12.08;33.50
60087;BME280;45960;53.630;55.972;2023-04-19T02:26:06;101367.16;;;12.09;33.12
60087;BME280;45960;53.630;55.972;2023-04-19T02:27:07;101374.41;;;12.07;33.03
60087;BME280;45960;53.630;55.972;2023-04-19T02:28:08;101367.50;;;12.03;32.93
60087;BME280;45960;53.630;55.972;2023-04-19T02:29:09;101374.56;;;12.04;32.66
60087;BME280;45960;53.630;55.972;2023-04-19T02:30:12;101371.72;;;12.07;32.56
60087;BME280;45960;53.630;55.972;2023-04-19T02:31:13;101369.66;;;12.12;32.38
60087;BME280;45960;53.630;55.972;2023-04-19T02:32:15;101371.16;;;12.18;32.51
60087;BME280;45960;53.630;55.972;2023-04-19T02:33:16;101366.50;;;12.21;32.31
60087;BME280;45960;53.630;55.972;2023-04-19T02:34:17;101368.06;;;12.25;31.90
60087;BME280;45960;53.630;55.972;2023-04-19T02:35:18;101359.84;;;12.28;31.93
60087;BME280;45960;53.630;55.972;2023-04-19T02:36:20;101359.69;;;12.31;32.00
60087;BME280;45960;53.630;55.972;2023-04-19T02:37:21;101359.50;;;12.35;31.89
60087;BME280;45960;53.630;55.972;2023-04-19T02:38:22;101356.75;;;12.36;31.82
60087;BME280;45960;53.630;55.972;2023-04-19T02:39:23;101360.13;;;12.40;32.01
60087;BME280;45960;53.630;55.972;2023-04-19T02:40:24;101360.91;;;12.42;31.87
60087;BME280;45960;53.630;55.972;2023-04-19T02:41:26;101365.13;;;12.46;32.11
60087;BME280;45960;53.630;55.972;2023-04-19T02:42:27;101367.63;;;12.49;31.99
60087;BME280;45960;53.630;55.972;2023-04-19T02:43:28;101361.16;;;12.53;32.06
60087;BME280;45960;53.630;55.972;2023-04-19T02:44:29;101365.41;;;12.57;31.95
60087;BME280;45960;53.630;55.972;2023-04-19T02:45:30;101360.81;;;12.59;31.59
60087;BME280;45960;53.630;55.972;2023-04-19T02:46:31;101368.78;;;12.61;31.40
60087;BME280;45960;53.630;55.972;2023-04-19T02:47:32;101365.31;;;12.59;31.40
60087;BME280;45960;53.630;55.972;2023-04-19T02:48:33;101362.72;;;12.57;31.68
60087;BME280;45960;53.630;55.972;2023-04-19T02:49:34;101368.25;;;12.54;31.39
60087;BME280;45960;53.630;55.972;2023-04-19T02:50:38;101373.78;;;12.51;31.36
60087;BME280;45960;53.630;55.972;2023-04-19T02:51:39;101372.25;;;12.47;31.37
60087;BME280;45960;53.630;55.972;2023-04-19T02:52:40;101373.44;;;12.41;31.61
60087;BME280;45960;53.630;55.972;2023-04-19T02:53:41;101369.28;;;12.36;31.62
60087;BME280;45960;53.630;55.972;2023-04-19T02:54:42;101372.03;;;12.34;31.59
60087;BME280;45960;53.630;55.972;2023-04-19T02:55:43;101372.91;;;12.35;31.66
60087;BME280;45960;53.630;55.972;2023-04-19T02:56:50;101374.81;;;12.32;31.46
60087;BME280;45960;53.630;55.972;2023-04-19T02:57:50;101368.69;;;12.30;31.57
60087;BME280;45960;53.630;55.972;2023-04-19T02:58:52;101348.50;;;12.23;31.76
60087;BME280;45960;53.630;55.972;2023-04-19T02:59:54;101362.47;;;12.30;31.79
60087;BME280;45960;53.630;55.972;2023-04-19T03:00:56;101369.63;;;12.29;31.79
60087;BME280;45960;53.630;55.972;2023-04-19T03:01:57;101377.22;;;12.21;31.90
60087;BME280;45960;53.630;55.972;2023-04-19T03:02:59;101372.34;;;12.12;31.78
60087;BME280;45960;53.630;55.972;2023-04-19T03:04:03;101372.84;;;12.03;32.09
60087;BME280;45960;53.630;55.972;2023-04-19T03:05:05;101367.66;;;12.00;32.11
60087;BME280;45960;53.630;55.972;2023-04-19T03:06:07;101375.06;;;11.95;32.20
60087;BME280;45960;53.630;55.972;2023-04-19T03:07:08;101368.00;;;11.94;32.29
60087;BME280;45960;53.630;55.972;2023-04-19T03:08:10;101369.81;;;11.93;32.31
60087;BME280;45960;53.630;55.972;2023-04-19T03:09:11;101372.41;;;11.95;32.31
60087;BME280;45960;53.630;55.972;2023-04-19T03:10:13;101360.91;;;11.93;32.30
60087;BME280;45960;53.630;55.972;2023-04-19T03:11:17;101370.41;;;11.98;32.19
60087;BME280;45960;53.630;55.972;2023-04-19T03:12:18;101371.31;;;11.99;32.45
60087;BME280;45960;53.630;55.972;2023-04-19T03:13:19;101375.06;;;11.95;32.57
60087;BME280;45960;53.630;55.972;2023-04-19T03:14:20;101370.75;;;11.92;32.48
60087;BME280;45960;53.630;55.972;2023-04-19T03:15:21;101370.84;;;11.91;32.31
60087;BME280;45960;53.630;55.972;2023-04-19T03:16:23;101362.81;;;11.91;32.38
60087;BME280;45960;53.630;55.972;2023-04-19T03:17:24;101366.59;;;11.86;32.44
60087;BME280;45960;53.630;55.972;2023-04-19T03:18:26;101366.41;;;11.90;32.53
60087;BME280;45960;53.630;55.972;2023-04-19T03:19:29;101368.16;;;11.91;32.68
60087;BME280;45960;53.630;55.972;2023-04-19T03:20:30;101364.53;;;11.92;32.87
60087;BME280;45960;53.630;55.972;2023-04-19T03:21:32;101362.81;;;11.91;32.67
60087;BME280;45960;53.630;55.972;2023-04-19T03:22:33;101377.13;;;11.90;32.75
60087;BME280;45960;53.630;55.972;2023-04-19T03:23:34;101370.84;;;11.91;32.58
60087;BME280;45960;53.630;55.972;2023-04-19T03:24:36;101367.28;;;11.90;32.46
60087;BME280;45960;53.630;55.972;2023-04-19T03:25:49;101370.06;;;11.89;32.64
60087;BME280;45960;53.630;55.972;2023-04-19T03:27:10;101374.44;;;11.90;32.69
60087;BME280;45960;53.630;55.972;2023-04-19T03:28:13;101367.84;;;11.97;32.56
60087;BME280;45960;53.630;55.972;2023-04-19T03:29:33;101371.31;;;11.99;32.45
60087;BME280;45960;53.630;55.972;2023-04-19T03:30:37;101374.28;;;12.10;32.27
60087;BME280;45960;53.630;55.972;2023-04-19T03:31:38;101368.91;;;12.10;32.53
60087;BME280;45960;53.630;55.972;2023-04-19T03:32:40;101368.75;;;12.13;32.38
60087;BME280;45960;53.630;55.972;2023-04-19T03:33:42;101380.84;;;12.20;32.26
60087;BME280;45960;53.630;55.972;2023-04-19T03:34:45;101370.13;;;12.20;32.30
60087;BME280;45960;53.630;55.972;2023-04-19T03:35:49;101367.38;;;12.22;32.42
60087;BME280;45960;53.630;55.972;2023-04-19T03:36:51;101369.78;;;12.26;32.62
60087;BME280;45960;53.630;55.972;2023-04-19T03:37:53;101357.97;;;12.30;32.48
60087;BME280;45960;53.630;55.972;2023-04-19T03:38:54;101365.47;;;12.40;32.29
60087;BME280;45960;53.630;55.972;2023-04-19T03:39:56;101365.13;;;12.46;32.27
60087;BME280;45960;53.630;55.972;2023-04-19T03:41:04;101362.13;;;12.52;31.99
60087;BME280;45960;53.630;55.972;2023-04-19T03:42:09;101353.75;;;12.58;31.88
60087;BME280;45960;53.630;55.972;2023-04-19T03:43:39;101357.78;;;12.65;31.83
60087;BME280;45960;53.630;55.972;2023-04-19T03:44:40;101354.59;;;12.74;31.88
60087;BME280;45960;53.630;55.972;2023-04-19T03:45:43;101348.09;;;12.79;31.65
60087;BME280;45960;53.630;55.972;2023-04-19T03:46:44;101349.50;;;12.86;31.59
60087;BME280;45960;53.630;55.972;2023-04-19T03:47:48;101355.44;;;12.91;31.41
60087;BME280;45960;53.630;55.972;2023-04-19T03:48:49;101350.84;;;12.93;31.24
60087;BME280;45960;53.630;55.972;2023-04-19T03:49:52;101357.00;;;12.95;31.28
60087;BME280;45960;53.630;55.972;2023-04-19T03:50:53;101356.81;;;12.98;31.47
60087;BME280;45960;53.630;55.972;2023-04-19T03:51:55;101352.97;;;13.02;31.12
60087;BME280;45960;53.630;55.972;2023-04-19T03:52:56;101356.44;;;13.04;31.45
60087;BME280;45960;53.630;55.972;2023-04-19T03:53:57;101352.66;;;13.08;31.26
60087;BME280;45960;53.630;55.972;2023-04-19T03:54:58;101352.03;;;13.03;31.10
60087;BME280;45960;53.630;55.972;2023-04-19T03:56:07;101356.63;;;13.01;31.14
60087;BME280;45960;53.630;55.972;2023-04-19T03:57:10;101354.72;;;13.03;31.34
60087;BME280;45960;53.630;55.972;2023-04-19T03:58:14;101358.94;;;13.07;31.29
60087;BME280;45960;53.630;55.972;2023-04-19T03:59:25;101351.75;;;13.08;31.22
60087;BME280;45960;53.630;55.972;2023-04-19T04:00:27;101354.38;;;13.09;31.14
60087;BME280;45960;53.630;55.972;2023-04-19T04:01:32;101339.50;;;13.04;31.16
60087;BME280;45960;53.630;55.972;2023-04-19T04:02:36;101334.81;;;13.07;31.12
60087;BME280;45960;53.630;55.972;2023-04-19T04:03:39;101351.31;;;13.15;31.11
60087;BME280;45960;53.630;55.972;2023-04-19T04:04:40;101355.75;;;13.16;31.05
60087;BME280;45960;53.630;55.972;2023-04-19T04:05:42;101354.00;;;13.15;31.29
60087;BME280;45960;53.630;55.972;2023-04-19T04:06:43;101352.09;;;13.17;31.11
60087;BME280;45960;53.630;55.972;2023-04-19T04:07:46;101349.16;;;13.22;31.11
60087;BME280;45960;53.630;55.972;2023-04-19T04:08:47;101355.13;;;13.27;31.03
60087;BME280;45960;53.630;55.972;2023-04-19T04:09:49;101347.78;;;13.31;31.09
60087;BME280;45960;53.630;55.972;2023-04-19T04:10:51;101342.22;;;13.34;31.02
60087;BME280;45960;53.630;55.972;2023-04-19T04:11:52;101346.44;;;13.38;30.98
60087;BME280;45960;53.630;55.972;2023-04-19T04:12:54;101348.75;;;13.44;31.04
60087;BME280;45960;53.630;55.972;2023-04-19T04:14:02;101351.16;;;13.49;31.00
60087;BME280;45960;53.630;55.972;2023-04-19T04:15:07;101346.47;;;13.52;30.81
60087;BME280;45960;53.630;55.972;2023-04-19T04:16:11;101349.72;;;13.57;30.63
60087;BME280;45960;53.630;55.972;2023-04-19T04:17:12;101340.56;;;13.61;30.39
60087;BME280;45960;53.630;55.972;2023-04-19T04:18:15;101342.94;;;13.66;30.45
60087;BME280;45960;53.630;55.972;2023-04-19T04:19:16;101349.94;;;13.69;30.18
60087;BME280;45960;53.630;55.972;2023-04-19T04:20:19;101342.66;;;13.71;30.08
60087;BME280;45960;53.630;55.972;2023-04-19T04:21:20;101337.19;;;13.72;29.95
60087;BME280;45960;53.630;55.972;2023-04-19T04:22:24;101338.06;;;13.73;30.03
60087;BME280;45960;53.630;55.972;2023-04-19T04:23:25;101341.03;;;13.68;29.96
60087;BME280;45960;53.630;55.972;2023-04-19T04:24:28;101335.84;;;13.65;30.26
60087;BME280;45960;53.630;55.972;2023-04-19T04:25:57;101322.81;;;13.59;29.87
60087;BME280;45960;53.630;55.972;2023-04-19T04:27:05;101334.03;;;13.80;30.01
60087;BME280;45960;53.630;55.972;2023-04-19T04:28:09;101335.59;;;13.84;29.73
60087;BME280;45960;53.630;55.972;2023-04-19T04:29:13;101336.06;;;13.91;30.02
60087;BME280;45960;53.630;55.972;2023-04-19T04:30:15;101338.47;;;13.95;30.18
60087;BME280;45960;53.630;55.972;2023-04-19T04:31:17;101335.28;;;14.03;29.67
60087;BME280;45960;53.630;55.972;2023-04-19T04:32:19;101339.22;;;14.12;29.66
60087;BME280;45960;53.630;55.972;2023-04-19T04:33:24;101330.00;;;14.16;29.68
60087;BME280;45960;53.630;55.972;2023-04-19T04:34:26;101335.97;;;14.21;29.60
60087;BME280;45960;53.630;55.972;2023-04-19T04:35:36;101327.69;;;14.24;29.48
60087;BME280;45960;53.630;55.972;2023-04-19T04:36:45;101335.16;;;14.33;29.57
60087;BME280;45960;53.630;55.972;2023-04-19T04:37:47;101335.53;;;14.41;29.26
60087;BME280;45960;53.630;55.972;2023-04-19T04:38:48;101329.53;;;14.50;29.40
60087;BME280;45960;53.630;55.972;2023-04-19T04:39:49;101326.69;;;14.53;29.12
60087;BME280;45960;53.630;55.972;2023-04-19T04:40:54;101325.53;;;14.58;29.09
60087;BME280;45960;53.630;55.972;2023-04-19T04:41:55;101333.41;;;14.61;29.28
60087;BME280;45960;53.630;55.972;2023-04-19T04:42:59;101324.38;;;14.62;29.18
60087;BME280;45960;53.630;55.972;2023-04-19T04:44:05;101332.06;;;14.68;29.02
60087;BME280;45960;53.630;55.972;2023-04-19T04:45:10;101333.34;;;14.75;28.59
60087;BME280;45960;53.630;55.972;2023-04-19T04:46:12;101322.19;;;14.81;28.41
60087;BME280;45960;53.630;55.972;2023-04-19T04:47:16;101324.50;;;14.87;27.96
60087;BME280;45960;53.630;55.972;2023-04-19T04:48:24;101326.78;;;14.93;28.06
60087;BME280;45960;53.630;55.972;2023-04-19T04:49:25;101328.06;;;15.00;27.81
60087;BME280;45960;53.630;55.972;2023-04-19T04:50:27;101325.94;;;15.06;27.83
60087;BME280;45960;53.630;55.972;2023-04-19T04:51:28;101327.47;;;15.10;27.93
60087;BME280;45960;53.630;55.972;2023-04-19T04:52:31;101327.25;;;15.13;27.93
60087;BME280;45960;53.630;55.972;2023-04-19T04:53:43;101325.31;;;15.15;27.72
60087;BME280;45960;53.630;55.972;2023-04-19T04:54:44;101332.22;;;15.19;27.60
60087;BME280;45960;53.630;55.972;2023-04-19T04:55:55;101329.41;;;15.20;27.60
60087;BME280;45960;53.630;55.972;2023-04-19T04:56:57;101325.44;;;15.26;27.04
60087;BME280;45960;53.630;55.972;2023-04-19T04:57:58;101327.72;;;15.32;26.96
60087;BME280;45960;53.630;55.972;2023-04-19T04:59:16;101323.63;;;15.39;26.86
60087;BME280;45960;53.630;55.972;2023-04-19T05:00:22;101330.75;;;15.40;26.59
60087;BME280;45960;53.630;55.972;2023-04-19T05:01:31;101328.81;;;15.42;26.64
60087;BME280;45960;53.630;55.972;2023-04-19T05:02:32;101326.44;;;15.51;26.47
60087;BME280;45960;53.630;55.972;2023-04-19T05:03:33;101324.31;;;15.56;26.64
60087;BME280;45960;53.630;55.972;2023-04-19T05:04:37;101321.72;;;15.67;26.82
60087;BME280;45960;53.630;55.972;2023-04-19T05:05:38;101328.66;;;15.71;26.42
60087;BME280;45960;53.630;55.972;2023-04-19T05:06:39;101331.16;;;15.74;26.30
60087;BME280;45960;53.630;55.972;2023-04-19T05:07:42;101336.84;;;15.82;26.15
60087;BME280;45960;53.630;55.972;2023-04-19T05:08:43;101336.63;;;15.85;25.85
60087;BME280;45960;53.630;55.972;2023-04-19T05:09:53;101331.03;;;15.88;25.95
60087;BME280;45960;53.630;55.972;2023-04-19T05:10:59;101338.78;;;15.93;25.98
60087;BME280;45960;53.630;55.972;2023-04-19T05:12:03;101334.03;;;15.97;25.89
60087;BME280;45960;53.630;55.972;2023-04-19T05:13:04;101326.28;;;16.05;26.10
60087;BME280;45960;53.630;55.972;2023-04-19T05:14:06;101330.78;;;16.17;26.16
60087;BME280;45960;53.630;55.972;2023-04-19T05:15:08;101326.31;;;16.29;25.59
60087;BME280;45960;53.630;55.972;2023-04-19T05:16:11;101330.19;;;16.38;25.69
60087;BME280;45960;53.630;55.972;2023-04-19T05:17:15;101332.22;;;16.47;25.61
60087;BME280;45960;53.630;55.972;2023-04-19T05:18:16;101335.00;;;16.58;25.40
60087;BME280;45960;53.630;55.972;2023-04-19T05:19:17;101332.06;;;16.61;25.27
60087;BME280;45960;53.630;55.972;2023-04-19T05:20:24;101330.00;;;16.65;25.05
60087;BME280;45960;53.630;55.972;2023-04-19T05:21:33;101328.91;;;16.67;25.03
60087;BME280;45960;53.630;55.972;2023-04-19T05:22:36;101329.16;;;16.64;25.03